Flight Track Log - Related Links

Times and Time Zones

All times are in EDT time to prevent confusion due to time zone crossing. See the AWE710 flight status page for this flight to view local times or setup timezone preferences in your user account.

Time Position Orientation Groundspeed Altitude Reporting Facility
EDT Latitude Longitude Course Direction KTS MPH feet Rate Location/Type
Thu 12:56:34 AM 39.8720 -74.6460 62° Northeast 431 496 12,800  Level FlightAware ADS-B
Thu 12:56:50 AM 39.8886 -74.6044 63° Northeast 437 503 13,700 3,652 Climbing FlightAware ADS-B
Thu 12:57:20 AM 39.9163 -74.5335 63° Northeast 434 499 15,600 3,931 Climbing FlightAware ADS-B
Thu 12:57:48 AM 39.9361 -74.4832 63° Northeast 419 482 17,500 3,661 Climbing FlightAware ADS-B
Thu 12:58:19 AM 39.9707 -74.4018 61° Northeast 427 491 19,200 2,951 Climbing FlightAware ADS-B
Thu 12:58:49 AM 40.0004 -74.3339 60° Northeast 433 498 20,500 2,760 Climbing FlightAware ADS-B
Thu 12:59:09 AM 40.0210 -74.2878 60° Northeast 435 501 21,500 2,897 Climbing FlightAware ADS-B
Thu 12:59:18 AM 40.0297 -74.2664 62° Northeast 439 505 21,900 2,400 Climbing FlightAware ADS-B
Thu 12:59:44 AM 40.0527 -74.2041 64° Northeast 445 512 22,900 2,316 Climbing FlightAware ADS-B
Thu 01:00:15 AM 40.0784 -74.1292 66° East 452 520 24,100 2,226 Climbing FlightAware ADS-B
Thu 01:00:46 AM 40.1052 -74.0499 66° East 456 525 25,200 2,032 Climbing FlightAware ADS-B
Thu 01:01:17 AM 40.1313 -73.9716 66° East 465 535 26,200 1,967 Climbing FlightAware ADS-B
Thu 01:01:47 AM 40.1573 -73.8927 67° East 472 543 27,200 1,742 Climbing FlightAware ADS-B
Thu 01:02:19 AM 40.1847 -73.8089 67° East 479 551 28,000 1,524 Climbing FlightAware ADS-B
Thu 01:02:50 AM 40.2118 -73.7253 67° East 487 560 28,800 1,619 Climbing FlightAware ADS-B
Thu 01:03:22 AM 40.2398 -73.6392 67° East 493 567 29,700 1,754 Climbing FlightAware ADS-B
Thu 01:03:55 AM 40.2693 -73.5485 67° East 494 568 30,700 1,905 Climbing FlightAware ADS-B
Thu 01:04:25 AM 40.2966 -73.4653 67° East 495 570 31,700 2,262 Climbing FlightAware ADS-B
Thu 01:04:56 AM 40.3239 -73.3821 67° East 484 557 33,000 2,419 Climbing FlightAware ADS-B
Thu 01:05:27 AM 40.3518 -73.2972 67° East 476 548 34,200 1,935 Climbing FlightAware ADS-B
Thu 01:05:58 AM 40.3780 -73.2170 67° East 476 548 35,000 762 Climbing FlightAware ADS-B
Thu 01:06:30 AM 40.4057 -73.1316 67° East 482 555 35,000  Level FlightAware ADS-B
Thu 01:07:06 AM 40.4370 -73.0342 67° East 487 560 35,000  Level FlightAware ADS-B
Thu 01:07:38 AM 40.4652 -72.9464 67° East 490 564 35,000  Level FlightAware ADS-B
Thu 01:08:10 AM 40.4934 -72.8579 67° East 493 567 35,000  Level FlightAware ADS-B
Thu 01:08:40 AM 40.5198 -72.7745 67° East 494 568 35,000  Level FlightAware ADS-B
Thu 01:09:12 AM 40.5473 -72.6882 67° East 496 571 35,000  Level FlightAware ADS-B
Thu 01:09:42 AM 40.5741 -72.6035 67° East 497 572 35,000  Level FlightAware ADS-B
Thu 01:10:12 AM 40.6007 -72.5194 67° East 498 573 35,000  Level FlightAware ADS-B
Thu 01:10:46 AM 40.6305 -72.4250 67° East 498 573 35,000  Level FlightAware ADS-B
Thu 01:11:17 AM 40.6582 -72.3378 67° East 499 574 35,000  Level FlightAware ADS-B
Thu 01:11:48 AM 40.6848 -72.2526 68° East 498 573 35,000  Level FlightAware ADS-B
Thu 01:12:18 AM 40.7115 -72.1664 68° East 497 572 35,000  Level FlightAware ADS-B
Thu 01:12:49 AM 40.7380 -72.0817 68° East 496 571 35,000  Level FlightAware ADS-B
Thu 01:13:21 AM 40.7656 -71.9921 68° East 496 571 35,000  Level FlightAware ADS-B
Thu 01:13:53 AM 40.7931 -71.9026 68° East 496 571 35,000  Level FlightAware ADS-B
Thu 01:14:25 AM 40.8211 -71.8106 68° East 495 570 35,000  Level FlightAware ADS-B
Thu 01:15:00 AM 40.8497 -71.7153 68° East 495 570 35,000  Level FlightAware ADS-B
Thu 01:15:30 AM 40.8753 -71.6312 68° East 495 570 35,000  Level FlightAware ADS-B
Thu 01:16:00 AM 40.9012 -71.5450 68° East 497 572 35,000  Level FlightAware ADS-B
Thu 01:16:34 AM 40.9301 -71.4491 68° East 499 574 35,000  Level FlightAware ADS-B
Thu 01:17:10 AM 40.9601 -71.3480 69° East 502 578 35,000  Level FlightAware ADS-B
Thu 01:17:42 AM 40.9876 -71.2562 68° East 503 579 35,000  Level FlightAware ADS-B
Thu 01:18:19 AM 41.0188 -71.1509 69° East 503 579 35,000  Level FlightAware ADS-B
Thu 01:18:50 AM 41.0456 -71.0609 68° East 504 580 35,000  Level FlightAware ADS-B
Thu 01:19:44 AM 41.0900 -70.9110 69° East 502 578 35,000  Level FlightAware ADS-B
Thu 01:20:24 AM 41.1240 -70.7980 68° East 501 577 35,000  Level FlightAware ADS-B
Thu 01:21:04 AM 41.1580 -70.6820 69° East 503 579 35,000  Level FlightAware ADS-B
Thu 01:21:49 AM 41.1960 -70.5510 69° East 504 580 35,000  Level FlightAware ADS-B
Thu 01:22:44 AM 41.2420 -70.3950 69° East 505 581 35,000  Level FlightAware ADS-B
Thu 01:23:24 AM 41.2770 -70.2750 69° East 507 583 35,000  Level FlightAware ADS-B
Thu 01:24:09 AM 41.3130 -70.1470 69° East 506 582 35,000  Level FlightAware ADS-B
Thu 01:25:04 AM 41.3600 -69.9850 69° East 507 583 35,000  Level FlightAware ADS-B
Thu 01:25:44 AM 41.3900 -69.8760 70° East 506 582 35,000  Level FlightAware ADS-B
Thu 01:26:19 AM 41.4220 -69.7650 69° East 507 583 35,000  Level FlightAware ADS-B
Thu 01:27:04 AM 41.4580 -69.6360 70° East 509 586 35,000  Level FlightAware ADS-B
Thu 01:27:49 AM 41.4940 -69.5090 69° East 508 585 35,000  Level FlightAware ADS-B
Thu 01:28:29 AM 41.5250 -69.3950 70° East 509 586 35,000  Level FlightAware ADS-B
Thu 01:29:14 AM 41.5630 -69.2580 70° East 508 585 35,000  Level FlightAware ADS-B
Thu 01:29:59 AM 41.5990 -69.1280 70° East 508 585 35,000  Level FlightAware ADS-B
Thu 01:30:39 AM 41.6310 -69.0100 70° East 508 585 35,000  Level FlightAware ADS-B
Thu 01:31:24 AM 41.6670 -68.8830 69° East 508 585 35,000  Level FlightAware ADS-B
Thu 01:31:54 AM 41.6900 -68.7950 71° East 508 585 35,000  Level FlightAware ADS-B
Thu 01:32:39 AM 41.7240 -68.6780 69° East 508 585 35,000  Level FlightAware ADS-B
Thu 01:33:29 AM 41.7680 -68.5100 71° East 505 581 35,000  Level FlightAware ADS-B
Thu 01:34:04 AM 41.7950 -68.4110 70° East 505 581 35,000  Level FlightAware ADS-B
Thu 01:34:49 AM 41.8300 -68.2770 71° East 506 582 35,000  Level FlightAware ADS-B
Thu 01:35:34 AM 41.8620 -68.1560 70° East 506 582 35,000  Level FlightAware ADS-B
Thu 01:36:14 AM 41.8870 -68.0550 72° East 506 582 35,000  Level FlightAware ADS-B
Thu 01:36:54 AM 41.9130 -67.9540 71° East 506 582 35,000  Level FlightAware ADS-B
Thu 01:37:39 AM 41.9640 -67.7730 69° East 507 583 35,000  Level FlightAware ADS-B
Thu 01:38:34 AM 42.0080 -67.6040 71° East 509 586 35,000  Level FlightAware ADS-B
Thu 01:39:29 AM 42.0500 -67.4410 71° East 510 587 35,000  Level FlightAware ADS-B
Thu 01:40:09 AM 42.0760 -67.3380 71° East 510 587 35,000  Level FlightAware ADS-B
Thu 01:40:49 AM 42.1020 -67.2360 71° East 510 587 35,000  Level FlightAware ADS-B
Thu 01:41:29 AM 42.1290 -67.1340 70° East 510 587 35,000  Level FlightAware ADS-B
Thu 01:42:09 AM 42.1550 -67.0320 71° East 510 587 35,000  Level FlightAware ADS-B
Thu 01:42:59 AM 42.1870 -66.9040 71° East 510 587 35,000  Level FlightAware ADS-B
Thu 01:43:39 AM 42.2130 -66.8010 71° East 510 587 35,000  Level FlightAware ADS-B
Thu 01:44:19 AM 42.2390 -66.6990 71° East 510 587 35,000  Level FlightAware ADS-B
Thu 01:45:09 AM 42.2720 -66.5710 71° East 510 587 35,000  Level FlightAware ADS-B
Thu 01:45:49 AM 42.2980 -66.4680 71° East 510 587 35,000  Level FlightAware ADS-B
Thu 01:46:29 AM 42.3240 -66.3660 71° East 510 587 35,000  Level FlightAware ADS-B
Thu 01:47:09 AM 42.3500 -66.2630 71° East 510 587 35,000  Level FlightAware ADS-B
Thu 01:47:49 AM 42.3770 -66.1600 70° East 510 587 35,000  Level FlightAware ADS-B
Thu 01:48:39 AM 42.4090 -66.0320 71° East 510 587 35,000  Level FlightAware ADS-B
Thu 01:49:24 AM 42.5500 -65.5500 71° East 520 598 35,000  Level Moncton Center
Thu 01:50:24 AM 42.6000 -65.3667 70° East 530 610 35,000  Level Moncton Center
Thu 01:51:24 AM 42.6333 -65.1667 77° East 530 610 35,000  Level Moncton Center
Thu 01:52:24 AM 42.6833 -64.9833 70° East 530 610 35,000  Level Moncton Center
Thu 01:53:24 AM 42.7333 -64.7833 71° East 530 610 35,000  Level Moncton Center
Thu 01:54:24 AM 42.7667 -64.6000 76° East 530 610 35,000  Level Moncton Center
Thu 01:55:24 AM 42.8167 -64.4167 70° East 530 610 35,000  Level Moncton Center
Thu 01:56:24 AM 42.8500 -64.2167 77° East 530 610 35,000  Level Moncton Center
Thu 01:57:24 AM 42.9000 -64.0333 70° East 530 610 35,000  Level Moncton Center
Thu 01:58:24 AM 42.9333 -63.8333 77° East 520 598 35,000  Level Moncton Center
Thu 01:59:24 AM 42.9833 -63.6500 69° East 520 598 35,000  Level Moncton Center
Thu 02:00:24 AM 43.0167 -63.4667 76° East 530 610 35,000  Level Moncton Center
Thu 02:01:24 AM 43.0667 -63.2500 72° East 530 610 35,000  Level Moncton Center
Thu 02:02:24 AM 43.1000 -63.0667 76° East 530 610 35,000  Level Moncton Center
Thu 02:03:24 AM 43.1333 -62.8667 77° East 530 610 35,000  Level Moncton Center
Thu 02:04:24 AM 43.1833 -62.6833 69° East 530 610 35,000  Level Moncton Center
Thu 02:05:24 AM 43.2167 -62.5000 76° East 530 610 35,000  Level Moncton Center
Thu 02:06:30 AM 43.2500 -62.2667 79° East 530 610 35,000  Level Gander Center
Thu 02:07:30 AM 43.3167 -62.0833 63° Northeast 530 610 35,000  Level Gander Center
Thu 02:08:30 AM 43.3500 -61.8833 77° East 530 610 35,000  Level Gander Center
Thu 02:09:30 AM 43.3833 -61.7000 76° East 530 610 35,000  Level Gander Center
Thu 02:10:30 AM 43.4333 -61.4833 72° East 530 610 35,000  Level Gander Center
Thu 02:11:30 AM 43.4667 -61.2833 77° East 530 610 35,000  Level Gander Center
Thu 02:12:30 AM 43.5000 -61.0833 77° East 530 610 35,000  Level Gander Center
Thu 02:13:30 AM 43.5500 -60.9000 69° East 530 610 35,000  Level Gander Center
Thu 02:14:30 AM 43.5833 -60.7000 77° East 530 610 35,000  Level Gander Center
Thu 02:15:30 AM 43.6167 -60.5000 77° East 540 621 35,000  Level Gander Center
Thu 02:16:30 AM 43.6333 -60.3000 83° East 540 621 35,000  Level Gander Center
Thu 02:17:30 AM 43.6833 -60.0833 72° East 540 621 35,000  Level Gander Center
Thu 02:18:30 AM 43.7167 -59.9000 76° East 540 621 35,000  Level Gander Center
Thu 02:19:30 AM 43.7667 -59.6833 72° East 540 621 35,000  Level Gander Center
Thu 02:20:30 AM 43.8000 -59.4833 77° East 550 633 35,000  Level Gander Center
Thu 02:21:30 AM 43.8333 -59.2667 78° East 550 633 35,000  Level Gander Center
Thu 02:22:30 AM 43.8667 -59.0667 77° East 550 633 35,000  Level Gander Center
Thu 02:23:30 AM 43.9000 -58.8833 76° East 550 633 35,000  Level Gander Center
Thu 02:24:30 AM 43.9333 -58.6667 78° East 550 633 35,000  Level Gander Center
Thu 02:25:30 AM 43.9667 -58.4667 77° East 560 644 35,000  Level Gander Center
Thu 02:26:30 AM 44.0000 -58.2500 78° East 550 633 35,000  Level Gander Center
Thu 02:27:30 AM 44.0500 -58.0333 72° East 560 644 35,000  Level Gander Center
Thu 02:28:30 AM 44.0667 -57.8333 83° East 560 644 35,000  Level Gander Center
Thu 02:29:30 AM 44.1000 -57.6167 78° East 560 644 35,000  Level Gander Center
Thu 02:30:30 AM 44.1333 -57.3833 79° East 560 644 35,000  Level Gander Center
Thu 02:31:30 AM 44.1667 -57.2000 76° East 560 644 35,000  Level Gander Center
Thu 02:32:30 AM 44.2000 -56.9833 78° East 560 644 35,000  Level Gander Center
Thu 02:33:30 AM 44.2333 -56.7667 78° East 560 644 35,000  Level Gander Center
Thu 02:34:30 AM 44.2500 -56.5667 83° East 560 644 35,000 526 Level Gander Center
Thu 02:35:24 AM 44.3000 -56.3500 72° East 560 644 36,000 1,100 Climbing Moncton Center
Thu 02:35:30 AM 44.3000 -56.3500 72° East 560 644 36,100 1,000 Climbing Gander Center
Thu 02:36:24 AM 44.3167 -56.1667 83° East 560 644 37,000 450 Climbing Moncton Center
Thu 02:37:30 AM 44.3500 -55.9167 79° East 560 644 37,000  Level Gander Center
Thu 02:38:30 AM 44.3833 -55.7167 77° East 550 633 37,000  Level Gander Center
Thu 02:39:30 AM 44.4000 -55.5000 84° East 550 633 37,000  Level Gander Center
Thu 02:40:30 AM 44.4333 -55.2833 78° East 540 621 37,000  Level Gander Center
Thu 02:41:30 AM 44.4500 -55.0667 84° East 550 633 37,000  Level Gander Center
Thu 02:42:30 AM 44.4833 -54.8500 78° East 560 644 37,000  Level Gander Center
Thu 02:43:30 AM 44.5000 -54.6667 83° East 560 644 37,000  Level Gander Center
Thu 02:44:24 AM 44.5333 -54.4667 77° East 530 610 37,000  Level Moncton Center
Thu 02:45:30 AM 44.5667 -54.2333 79° East 550 633 37,000  Level Gander Center
Thu 02:46:30 AM 44.5833 -54.0167 84° East 540 621 37,000  Level Gander Center
Thu 02:47:30 AM 44.6000 -53.8167 83° East 550 633 37,000  Level Gander Center
Thu 02:48:30 AM 44.6333 -53.6000 78° East 560 644 37,000  Level Gander Center
Thu 02:48:50 AM 44.6333 -53.5167 90° East 560 644 37,000  Level Gander Center
Thu 02:49:24 AM 44.6500 -53.4000 79° East 550 633 37,000  Level Moncton Center
Thu 02:49:50 AM 44.6667 -53.3000 77° East 560 644 37,000  Level Gander Center
Thu 02:50:50 AM 44.6833 -53.1000 83° East 560 644 37,000  Level Gander Center
Thu 02:51:24 AM 44.7000 -52.9667 80° East 570 656 37,000  Level Moncton Center
Thu 02:51:50 AM 44.7167 -52.8500 79° East 560 644 37,000  Level Gander Center
Thu 02:52:50 AM 44.7333 -52.6333 84° East 570 656 37,000  Level Gander Center
Thu 02:53:30 AM 44.7333 -52.5000 90° East 570 656 37,000  Level Gander Center
Thu 02:54:30 AM 44.7667 -52.2833 78° East 570 656 37,000  Level Gander Center
Thu 02:54:50 AM 44.7833 -52.2000 74° East 570 656 37,000  Level Gander Center
Thu 02:55:30 AM 44.7833 -52.0667 90° East 570 656 37,000  Level Gander Center
Thu 02:56:30 AM 44.8167 -51.8167 79° East 570 656 37,000  Level Gander Center
Thu 02:56:50 AM 44.8167 -51.7500 90° East 580 667 37,000  Level Gander Center
Thu 02:57:50 AM 44.8333 -51.5333 84° East 570 656 37,000 1,020 Level Gander Center
Thu 02:58:30 AM 44.8500 -51.3833 81° East 570 656 38,700 2,000 Climbing Gander Center
Thu 02:58:50 AM 44.8500 -51.3167 90° East 550 633 39,000 300 Climbing Gander Center
Thu 02:59:30 AM 44.8667 -51.2000 79° East 530 610 39,000  Level Gander Center
Thu 03:00:30 AM 44.8833 -50.9833 84° East 520 598 39,000  Level Gander Center
Thu 03:01:30 AM 44.9000 -50.7833 83° East 530 610 39,000  Level Gander Center
Thu 03:02:30 AM 44.9167 -50.5833 83° East 530 610 39,000  Level Gander Center
Thu 03:03:30 AM 44.9500 -50.3500 79° East 550 633 39,000  Level Gander Center
Thu 03:04:30 AM 44.9500 -50.1667 90° East 540 621 39,000  Level Gander Center
Thu 03:05:30 AM 44.9833 -49.9500 78° East 520 598 39,000  Level Gander Center
Thu 03:06:30 AM 45.0167 -49.7667 76° East 510 587 39,000  Level Gander Center
Thu 03:07:00 AM 45.0000 -50.0000 70° East 509 586 39,000  Level ETMS Enhanced Traffic Management System
Thu 03:07:30 AM 45.0667 -49.5667 70° East 510 587 39,000  Level Gander Center
Thu 03:08:30 AM 45.1167 -49.4000 67° East 510 587 39,000  Level Gander Center
Thu 03:08:50 AM 45.1167 -49.3167 90° East 500 575 39,000  Level Gander Center
Thu 03:09:30 AM 45.1500 -49.2000 68° East 510 587 39,000  Level Gander Center
Thu 03:09:50 AM 45.1667 -49.1167 74° East 520 598 39,000  Level Gander Center
Thu 03:10:50 AM 45.2000 -48.9167 77° East 520 598 39,000  Level Gander Center
Thu 03:11:30 AM 45.2333 -48.8167 65° Northeast 510 587 39,000  Level Gander Center
Thu 03:12:30 AM 45.2833 -48.6000 72° East 510 587 39,000  Level Gander Center
Thu 03:13:30 AM 45.3167 -48.4167 75° East 520 598 39,000  Level Gander Center
Thu 03:13:50 AM 45.3500 -48.3667 47° Northeast 520 598 39,000  Level Gander Center
Thu 03:14:30 AM 45.3833 -48.2167 72° East 520 598 39,000  Level Gander Center
Thu 03:15:30 AM 45.4167 -48.0333 75° East 510 587 39,000  Level Gander Center
Thu 03:16:30 AM 45.4667 -47.8333 70° East 520 598 39,000  Level Gander Center
Thu 03:16:50 AM 45.4667 -47.7833 90° East 530 610 39,000  Level Gander Center
Thu 03:17:50 AM 45.5167 -47.5833 70° East 520 598 39,000  Level Gander Center
Thu 03:18:50 AM 45.5667 -47.4000 69° East 520 598 39,000  Level Gander Center
Thu 03:20:00 AM 45.6171 -47.1811 72° East  Level FlightAware Approximate
Thu 03:27:00 AM 45.9111 -45.8593 72° East  Level FlightAware Approximate
Thu 03:28:00 AM 45.9526 -45.6657 73° East  Level FlightAware Approximate
Thu 03:29:00 AM 45.9938 -45.4719 73° East  Level FlightAware Approximate
Thu 03:30:00 AM 46.0346 -45.2778 73° East  Level FlightAware Approximate
Thu 03:31:00 AM 46.0752 -45.0834 73° East  Level FlightAware Approximate
Thu 03:32:00 AM 46.1154 -44.8887 73° East  Level FlightAware Approximate
Thu 03:33:00 AM 46.1552 -44.6938 73° East  Level FlightAware Approximate
Thu 03:34:00 AM 46.1948 -44.4986 74° East  Level FlightAware Approximate
Thu 03:35:00 AM 46.2340 -44.3030 74° East  Level FlightAware Approximate
Thu 03:36:00 AM 46.2728 -44.1072 74° East  Level FlightAware Approximate
Thu 03:37:00 AM 46.3114 -43.9112 74° East  Level FlightAware Approximate
Thu 03:38:00 AM 46.3496 -43.7148 74° East  Level FlightAware Approximate
Thu 03:39:00 AM 46.3874 -43.5182 74° East  Level FlightAware Approximate
Thu 03:40:00 AM 46.4249 -43.3213 74° East  Level FlightAware Approximate
Thu 03:41:00 AM 46.4621 -43.1241 75° East  Level FlightAware Approximate
Thu 03:42:00 AM 46.4990 -42.9267 75° East  Level FlightAware Approximate
Thu 03:43:00 AM 46.5355 -42.7290 75° East  Level FlightAware Approximate
Thu 03:44:00 AM 46.5716 -42.5310 75° East  Level FlightAware Approximate
Thu 03:45:00 AM 46.6074 -42.3328 75° East  Level FlightAware Approximate
Thu 03:46:00 AM 46.6429 -42.1343 75° East  Level FlightAware Approximate
Thu 03:47:00 AM 46.6781 -41.9355 75° East  Level FlightAware Approximate
Thu 03:48:00 AM 46.7128 -41.7365 76° East  Level FlightAware Approximate
Thu 03:49:00 AM 46.7473 -41.5373 76° East  Level FlightAware Approximate
Thu 03:50:00 AM 46.7814 -41.3377 76° East  Level FlightAware Approximate
Thu 03:51:00 AM 46.8151 -41.1380 76° East  Level FlightAware Approximate
Thu 03:52:00 AM 46.8485 -40.9379 76° East  Level FlightAware Approximate
Thu 03:53:00 AM 46.8816 -40.7377 76° East  Level FlightAware Approximate
Thu 03:54:00 AM 46.9143 -40.5372 77° East  Level FlightAware Approximate
Thu 03:55:00 AM 46.9467 -40.3364 77° East  Level FlightAware Approximate
Thu 03:56:00 AM 46.9787 -40.1354 77° East  Level FlightAware Approximate
Thu 03:57:00 AM 47.0093 -39.9341 78° East  Level FlightAware Approximate
Thu 03:58:00 AM 47.0375 -39.7316 78° East  Level FlightAware Approximate
Thu 03:58:00 AM 47.0000 -40.0000 78° East 491 565 39,000  Level ETMS Enhanced Traffic Management System
Thu 03:59:00 AM 47.0653 -39.5290 79° East  Level FlightAware Approximate
Thu 04:00:00 AM 47.0928 -39.3266 79° East  Level FlightAware Approximate
Thu 04:01:00 AM 47.1199 -39.1240 79° East  Level FlightAware Approximate
Thu 04:02:00 AM 47.1466 -38.9212 79° East  Level FlightAware Approximate
Thu 04:03:00 AM 47.1732 -38.7183 79° East  Level FlightAware Approximate
Thu 04:04:00 AM 47.2003 -38.5154 79° East  Level FlightAware Approximate
Thu 04:05:00 AM 47.2180 -38.4279 79° East 491 565 39,000  Level FlightAware Transoceanic
Thu 04:06:00 AM 47.2437 -38.2305 79° East 491 565 39,000  Level FlightAware Transoceanic
Thu 04:07:00 AM 47.2691 -38.0329 79° East 491 565 39,000  Level FlightAware Transoceanic
Thu 04:08:00 AM 47.2941 -37.8352 79° East 491 565 39,000  Level FlightAware Transoceanic
Thu 04:09:00 AM 47.3188 -37.6372 80° East 491 565 39,000  Level FlightAware Transoceanic
Thu 04:10:00 AM 47.3432 -37.4390 80° East 491 565 39,000  Level FlightAware Transoceanic
Thu 04:11:00 AM 47.3672 -37.2407 80° East 491 565 39,000  Level FlightAware Transoceanic
Thu 04:12:00 AM 47.3909 -37.0422 80° East 491 565 39,000  Level FlightAware Transoceanic
Thu 04:13:00 AM 47.4142 -36.8435 80° East 491 565 39,000  Level FlightAware Transoceanic
Thu 04:14:00 AM 47.4372 -36.6446 80° East 491 565 39,000  Level FlightAware Transoceanic
Thu 04:15:00 AM 47.4599 -36.4456 81° East 491 565 39,000  Level FlightAware Transoceanic
Thu 04:16:00 AM 47.4822 -36.2464 81° East 491 565 39,000  Level FlightAware Transoceanic
Thu 04:17:00 AM 47.5042 -36.0470 81° East 491 565 39,000  Level FlightAware Transoceanic
Thu 04:18:00 AM 47.5258 -35.8475 81° East 491 565 39,000  Level FlightAware Transoceanic
Thu 04:19:00 AM 47.5471 -35.6478 81° East 491 565 39,000  Level FlightAware Transoceanic
Thu 04:20:00 AM 47.5680 -35.4479 81° East 491 565 39,000  Level FlightAware Transoceanic
Thu 04:21:00 AM 47.5886 -35.2479 81° East 491 565 39,000  Level FlightAware Transoceanic
Thu 04:22:00 AM 47.6088 -35.0477 82° East 491 565 39,000  Level FlightAware Transoceanic
Thu 04:23:00 AM 47.6287 -34.8474 82° East 491 565 39,000  Level FlightAware Transoceanic
Thu 04:24:00 AM 47.6482 -34.6469 82° East 491 565 39,000  Level FlightAware Transoceanic
Thu 04:25:00 AM 47.6674 -34.4463 82° East 491 565 39,000  Level FlightAware Transoceanic
Thu 04:26:00 AM 47.6862 -34.2455 82° East 491 565 39,000  Level FlightAware Transoceanic
Thu 04:27:00 AM 47.7047 -34.0446 82° East 491 565 39,000  Level FlightAware Transoceanic
Thu 04:28:00 AM 47.7228 -33.8435 82° East 491 565 39,000  Level FlightAware Transoceanic
Thu 04:29:00 AM 47.7406 -33.6423 83° East 491 565 39,000  Level FlightAware Transoceanic
Thu 04:30:00 AM 47.7580 -33.4410 83° East 491 565 39,000  Level FlightAware Transoceanic
Thu 04:31:00 AM 47.7751 -33.2395 83° East 491 565 39,000  Level FlightAware Transoceanic
Thu 04:32:00 AM 47.7918 -33.0379 83° East 491 565 39,000  Level FlightAware Transoceanic
Thu 04:33:00 AM 47.8082 -32.8362 83° East 491 565 39,000  Level FlightAware Transoceanic
Thu 04:34:00 AM 47.8242 -32.6343 83° East 491 565 39,000  Level FlightAware Transoceanic
Thu 04:35:00 AM 47.8398 -32.4324 83° East 491 565 39,000  Level FlightAware Transoceanic
Thu 04:36:00 AM 47.8551 -32.2303 84° East 491 565 39,000  Level FlightAware Transoceanic
Thu 04:37:00 AM 47.8701 -32.0281 84° East 491 565 39,000  Level FlightAware Transoceanic
Thu 04:38:00 AM 47.8847 -31.8257 84° East 491 565 39,000  Level FlightAware Transoceanic
Thu 04:39:00 AM 47.8989 -31.6233 84° East 491 565 39,000  Level FlightAware Transoceanic
Thu 04:40:00 AM 47.9128 -31.4207 84° East 491 565 39,000  Level FlightAware Transoceanic
Thu 04:41:00 AM 47.9263 -31.2181 84° East 491 565 39,000  Level FlightAware Transoceanic
Thu 04:42:00 AM 47.9395 -31.0153 85° East 491 565 39,000  Level FlightAware Transoceanic
Thu 04:43:00 AM 47.9523 -30.8124 85° East 491 565 39,000  Level FlightAware Transoceanic
Thu 04:44:00 AM 47.9648 -30.6095 85° East 491 565 39,000  Level FlightAware Transoceanic
Thu 04:45:00 AM 47.9769 -30.4064 85° East 491 565 39,000  Level FlightAware Transoceanic
Thu 04:46:00 AM 47.9886 -30.2033 85° East 491 565 39,000  Level FlightAware Transoceanic
Thu 04:47:00 AM 48.0003 -29.9940 85° East  Level FlightAware Approximate
Thu 04:48:00 AM 48.0017 -29.9882 78° East  Level FlightAware Approximate
Thu 04:49:00 AM 48.0303 -29.7825 78° East  Level FlightAware Approximate
Thu 04:50:00 AM 48.0587 -29.5767 78° East  Level FlightAware Approximate
Thu 04:51:00 AM 48.0866 -29.3706 78° East  Level FlightAware Approximate
Thu 04:51:00 AM 48.0000 -30.0000 78° East 502 578 39,000  Level ETMS Enhanced Traffic Management System
Thu 04:52:00 AM 48.1142 -29.1642 79° East  Level FlightAware Approximate
Thu 04:53:00 AM 48.1414 -28.9577 79° East  Level FlightAware Approximate
Thu 04:54:00 AM 48.1682 -28.7509 79° East  Level FlightAware Approximate
Thu 04:55:00 AM 48.1947 -28.5434 79° East  Level FlightAware Approximate
Thu 04:56:00 AM 48.2209 -28.3357 79° East  Level FlightAware Approximate
Thu 04:57:00 AM 48.3052 -27.7457 79° East 502 578 39,000  Level FlightAware Transoceanic
Thu 04:58:00 AM 48.3307 -27.5395 80° East 502 578 39,000  Level FlightAware Transoceanic
Thu 04:59:00 AM 48.3559 -27.3330 80° East 502 578 39,000  Level FlightAware Transoceanic
Thu 05:00:00 AM 48.3807 -27.1264 80° East 502 578 39,000  Level FlightAware Transoceanic
Thu 05:01:00 AM 48.4052 -26.9196 80° East 502 578 39,000  Level FlightAware Transoceanic
Thu 05:02:00 AM 48.4292 -26.7125 80° East 502 578 39,000  Level FlightAware Transoceanic
Thu 05:03:00 AM 48.4529 -26.5053 80° East 502 578 39,000  Level FlightAware Transoceanic
Thu 05:04:00 AM 48.4763 -26.2979 80° East 502 578 39,000  Level FlightAware Transoceanic
Thu 05:05:00 AM 48.4992 -26.0903 81° East 502 578 39,000  Level FlightAware Transoceanic
Thu 05:06:00 AM 48.5218 -25.8825 81° East 502 578 39,000  Level FlightAware Transoceanic
Thu 05:07:00 AM 48.5440 -25.6745 81° East 502 578 39,000  Level FlightAware Transoceanic
Thu 05:08:00 AM 48.5658 -25.4663 81° East 502 578 39,000  Level FlightAware Transoceanic
Thu 05:09:00 AM 48.5873 -25.2580 81° East 502 578 39,000  Level FlightAware Transoceanic
Thu 05:10:00 AM 48.6084 -25.0494 81° East 502 578 39,000  Level FlightAware Transoceanic
Thu 05:11:00 AM 48.6291 -24.8407 82° East 502 578 39,000  Level FlightAware Transoceanic
Thu 05:12:00 AM 48.6494 -24.6319 82° East 502 578 39,000  Level FlightAware Transoceanic
Thu 05:13:00 AM 48.6693 -24.4229 82° East 502 578 39,000  Level FlightAware Transoceanic
Thu 05:14:00 AM 48.6889 -24.2137 82° East 502 578 39,000  Level FlightAware Transoceanic
Thu 05:15:00 AM 48.7081 -24.0043 82° East 502 578 39,000  Level FlightAware Transoceanic
Thu 05:16:00 AM 48.7269 -23.7948 82° East 502 578 39,000  Level FlightAware Transoceanic
Thu 05:17:00 AM 48.7453 -23.5851 82° East 502 578 39,000  Level FlightAware Transoceanic
Thu 05:18:00 AM 48.7634 -23.3753 83° East 502 578 39,000  Level FlightAware Transoceanic
Thu 05:19:00 AM 48.7811 -23.1654 83° East 502 578 39,000  Level FlightAware Transoceanic
Thu 05:20:00 AM 48.7983 -22.9552 83° East 502 578 39,000  Level FlightAware Transoceanic
Thu 05:21:00 AM 48.8152 -22.7450 83° East 502 578 39,000  Level FlightAware Transoceanic
Thu 05:22:00 AM 48.8318 -22.5346 83° East 502 578 39,000  Level FlightAware Transoceanic
Thu 05:23:00 AM 48.8479 -22.3241 83° East 502 578 39,000  Level FlightAware Transoceanic
Thu 05:24:00 AM 48.8637 -22.1134 84° East 502 578 39,000  Level FlightAware Transoceanic
Thu 05:25:00 AM 48.8790 -21.9026 84° East 502 578 39,000  Level FlightAware Transoceanic
Thu 05:26:00 AM 48.8940 -21.6917 84° East 502 578 39,000  Level FlightAware Transoceanic
Thu 05:27:00 AM 48.9086 -21.4806 84° East 502 578 39,000  Level FlightAware Transoceanic
Thu 05:28:00 AM 48.9228 -21.2694 84° East 502 578 39,000  Level FlightAware Transoceanic
Thu 05:29:00 AM 48.9366 -21.0581 84° East 502 578 39,000  Level FlightAware Transoceanic
Thu 05:30:00 AM 48.9501 -20.8467 85° East 502 578 39,000  Level FlightAware Transoceanic
Thu 05:31:00 AM 48.9632 -20.6352 85° East 502 578 39,000  Level FlightAware Transoceanic
Thu 05:32:00 AM 48.9758 -20.4236 85° East 502 578 39,000  Level FlightAware Transoceanic
Thu 05:33:00 AM 48.9881 -20.2118 85° East 502 578 39,000  Level FlightAware Transoceanic
Thu 05:34:00 AM 49.0001 -19.9979 85° East  Level FlightAware Approximate
Thu 05:35:00 AM 49.0002 -19.9958 85° East  Level FlightAware Approximate
Thu 05:36:00 AM 49.0111 -19.7818 85° East  Level FlightAware Approximate
Thu 05:37:00 AM 49.0215 -19.5676 86° East  Level FlightAware Approximate
Thu 05:38:00 AM 49.0316 -19.3538 86° East  Level FlightAware Approximate
Thu 05:39:00 AM 49.0413 -19.1400 86° East  Level FlightAware Approximate
Thu 05:40:00 AM 49.0505 -18.9261 86° East  Level FlightAware Approximate
Thu 05:41:00 AM 49.0594 -18.7120 86° East  Level FlightAware Approximate
Thu 05:42:00 AM 49.0679 -18.4980 86° East  Level FlightAware Approximate
Thu 05:43:00 AM 49.0759 -18.2838 87° East  Level FlightAware Approximate
Thu 05:44:00 AM 49.0836 -18.0696 87° East  Level FlightAware Approximate
Thu 05:45:00 AM 49.0909 -17.8553 87° East  Level FlightAware Approximate
Thu 05:46:00 AM 49.0978 -17.6410 87° East  Level FlightAware Approximate
Thu 05:47:00 AM 49.1043 -17.4266 87° East  Level FlightAware Approximate
Thu 05:48:00 AM 49.1104 -17.2121 87° East  Level FlightAware Approximate
Thu 05:49:00 AM 49.1161 -16.9976 88° East  Level FlightAware Approximate
Thu 05:50:00 AM 49.1214 -16.7831 88° East  Level FlightAware Approximate
Thu 05:51:00 AM 49.1263 -16.5685 88° East  Level FlightAware Approximate
Thu 05:52:00 AM 49.1308 -16.3538 88° East  Level FlightAware Approximate
Thu 05:53:00 AM 49.1349 -16.1391 88° East  Level FlightAware Approximate
Thu 05:54:00 AM 49.1386 -15.9244 88° East  Level FlightAware Approximate
Thu 05:55:00 AM 49.1419 -15.7097 89° East  Level FlightAware Approximate
Thu 05:56:00 AM 49.1448 -15.4949 89° East  Level FlightAware Approximate
Thu 05:57:00 AM 49.1473 -15.2801 89° East  Level FlightAware Approximate
Thu 05:58:00 AM 49.1494 -15.0653 89° East  Level FlightAware Approximate
Thu 05:59:00 AM 49.1512 -14.8505 89° East  Level FlightAware Approximate
Thu 06:00:00 AM 49.1526 -14.6356 89° East  Level FlightAware Approximate
Thu 06:01:00 AM 49.1537 -14.4208 90° East  Level FlightAware Approximate
Thu 06:02:00 AM 49.1543 -14.2059 90° East  Level FlightAware Approximate
Thu 06:03:00 AM 49.1545 -13.9911 90° East  Level FlightAware Approximate
Thu 06:04:00 AM 49.1544 -13.7762 90° East  Level FlightAware Approximate
Thu 06:05:00 AM 49.1538 -13.5614 90° East  Level FlightAware Approximate
Thu 06:06:00 AM 49.1528 -13.3465 90° East  Level FlightAware Approximate
Thu 06:07:00 AM 49.1515 -13.1317 90° East  Level FlightAware Approximate
Thu 06:08:00 AM 49.1497 -12.9168 91° East  Level FlightAware Approximate
Thu 06:09:00 AM 49.1475 -12.7020 91° East  Level FlightAware Approximate
Thu 06:10:00 AM 49.1450 -12.4872 91° East  Level FlightAware Approximate
Thu 06:11:00 AM 49.1420 -12.2725 91° East  Level FlightAware Approximate
Thu 06:12:00 AM 49.1386 -12.0577 91° East  Level FlightAware Approximate
Thu 06:13:00 AM 49.1349 -11.8430 91° East  Level FlightAware Approximate
Thu 06:14:00 AM 49.1307 -11.6284 92° East  Level FlightAware Approximate
Thu 06:15:00 AM 49.1262 -11.4137 92° East  Level FlightAware Approximate
Thu 06:16:00 AM 49.1212 -11.1991 92° East  Level FlightAware Approximate
Thu 06:17:00 AM 49.1159 -10.9846 92° East  Level FlightAware Approximate
Thu 06:18:00 AM 49.1101 -10.7701 92° East  Level FlightAware Approximate
Thu 06:19:00 AM 49.1040 -10.5556 92° East  Level FlightAware Approximate
Thu 06:20:00 AM 49.0974 -10.3412 93° East  Level FlightAware Approximate
Thu 06:21:00 AM 49.0905 -10.1269 93° East  Level FlightAware Approximate
Thu 06:22:00 AM 49.0832 -9.9126 93° East  Level FlightAware Approximate
Thu 06:23:00 AM 49.0754 -9.6984 93° East  Level FlightAware Approximate
Thu 06:24:00 AM 49.0673 -9.4842 93° East  Level FlightAware Approximate
Thu 06:25:00 AM 49.0588 -9.2702 93° East  Level FlightAware Approximate
Thu 06:26:00 AM 49.0499 -9.0562 94° East  Level FlightAware Approximate
Thu 06:27:00 AM 49.0406 -8.8422 94° East  Level FlightAware Approximate
Thu 06:28:00 AM 49.0308 -8.6284 94° East  Level FlightAware Approximate
Thu 06:28:48 AM 49.0500 -8.9390 94° East 511 588 39,000  Level FlightAware ADS-B
Thu 06:29:00 AM 49.0207 -8.4147 94° East  Level FlightAware Approximate
Thu 06:29:33 AM 49.0480 -8.7790 91° East 511 588 39,000  Level FlightAware ADS-B
Thu 06:30:13 AM 49.0450 -8.6320 92° East 511 588 39,000  Level FlightAware ADS-B
Thu 06:30:58 AM 49.0410 -8.4740 92° East 510 587 39,000  Level FlightAware ADS-B
Thu 06:31:38 AM 49.0380 -8.3320 92° East 510 587 39,000  Level FlightAware ADS-B
Thu 06:32:23 AM 49.0330 -8.1650 93° East 509 586 39,000  Level FlightAware ADS-B
Thu 06:33:03 AM 49.0290 -8.0220 92° East 510 587 39,000  Level FlightAware ADS-B
Thu 06:33:43 AM 49.0260 -7.8790 92° East 510 587 39,000  Level FlightAware ADS-B
Thu 06:34:28 AM 49.0260 -7.7150 90° East 510 587 39,000  Level FlightAware ADS-B
Thu 06:35:08 AM 49.0260 -7.5820 90° East 509 586 39,000  Level FlightAware ADS-B
Thu 06:35:43 AM 49.0250 -7.4470 91° East 509 586 39,000  Level FlightAware ADS-B
Thu 06:36:33 AM 49.0240 -7.2700 90° East 508 585 39,000  Level FlightAware ADS-B
Thu 06:37:13 AM 49.0230 -7.1260 91° East 507 583 39,000  Level FlightAware ADS-B
Thu 06:37:58 AM 49.0210 -6.9670 91° East 506 582 39,000  Level FlightAware ADS-B
Thu 06:38:38 AM 49.0190 -6.8290 91° East 506 582 39,000  Level FlightAware ADS-B
Thu 06:39:18 AM 49.0180 -6.6870 91° East 507 583 39,000  Level FlightAware ADS-B
Thu 06:40:03 AM 49.0160 -6.5260 91° East 508 585 39,000  Level FlightAware ADS-B
Thu 06:40:43 AM 49.0130 -6.3810 92° East 508 585 39,000  Level FlightAware ADS-B
Thu 06:41:28 AM 49.0110 -6.2250 91° East 508 585 39,000  Level FlightAware ADS-B
Thu 06:42:08 AM 49.0090 -6.0810 91° East 508 585 39,000  Level FlightAware ADS-B
Thu 06:42:53 AM 49.0060 -5.9150 92° East 509 586 39,000  Level FlightAware ADS-B
Thu 06:43:33 AM 49.0040 -5.7720 91° East 509 586 39,000  Level FlightAware ADS-B
Thu 06:44:13 AM 49.0010 -5.6320 92° East 509 586 39,000  Level FlightAware ADS-B
Thu 06:44:58 AM 48.9980 -5.4690 92° East 509 586 39,000  Level FlightAware ADS-B
Thu 06:45:38 AM 48.9960 -5.3310 91° East 509 586 39,000  Level FlightAware ADS-B
Thu 06:46:18 AM 48.9930 -5.1810 92° East 509 586 39,000  Level FlightAware ADS-B
Thu 06:47:03 AM 48.9890 -5.0310 92° East 509 586 39,000  Level FlightAware ADS-B
Thu 06:47:43 AM 48.9860 -4.8790 92° East 508 585 39,000  Level FlightAware ADS-B
Thu 06:48:28 AM 48.9830 -4.7250 92° East 508 585 39,000  Level FlightAware ADS-B
Thu 06:49:08 AM 48.9790 -4.5880 92° East 509 586 39,000  Level FlightAware ADS-B
Thu 06:49:48 AM 48.9760 -4.4370 92° East 509 586 39,000  Level FlightAware ADS-B
Thu 06:50:33 AM 48.9720 -4.2740 92° East 510 587 39,000  Level FlightAware ADS-B
Thu 06:51:13 AM 48.9690 -4.1350 92° East 511 588 39,000  Level FlightAware ADS-B
Thu 06:51:53 AM 48.9650 -3.9930 92° East 511 588 39,000  Level FlightAware ADS-B
Thu 06:52:38 AM 48.9600 -3.8270 93° East 510 587 39,000  Level FlightAware ADS-B
Thu 06:53:23 AM 48.9550 -3.6790 93° East 510 587 39,000  Level FlightAware ADS-B
Thu 06:54:03 AM 48.9500 -3.5250 93° East 510 587 39,000  Level FlightAware ADS-B
Thu 06:54:43 AM 48.9450 -3.3840 93° East 510 587 39,000  Level FlightAware ADS-B
Thu 06:55:28 AM 48.9390 -3.2240 93° East 511 588 39,000  Level FlightAware ADS-B
Thu 06:56:03 AM 48.9350 -3.1030 93° East 512 589 39,000  Level FlightAware ADS-B
Thu 06:56:53 AM 48.9280 -2.9160 93° East 512 589 39,000  Level FlightAware ADS-B
Thu 06:57:33 AM 48.9230 -2.7760 93° East 512 589 39,000  Level FlightAware ADS-B
Thu 06:58:13 AM 48.9170 -2.6250 93° East 513 590 39,000  Level FlightAware ADS-B
Thu 06:58:58 AM 48.9110 -2.4750 93° East 514 592 39,000  Level FlightAware ADS-B
Thu 07:01:00 AM 48.8755 -2.0438 97° East  Level Estimated
Thu 07:02:00 AM 48.8574 -1.8319 97° East  Level Estimated
Thu 07:02:13 AM 48.8810 -1.7580 97° East 523 602 39,000  Level FlightAware ADS-B
Thu 07:02:58 AM 48.8730 -1.5930 94° East 524 603 39,000  Level FlightAware ADS-B
Thu 07:03:43 AM 48.8670 -1.4480 94° East 523 602 39,000  Level FlightAware ADS-B
Thu 07:04:28 AM 48.8580 -1.2750 94° East 522 601 39,000  Level FlightAware ADS-B
Thu 07:05:18 AM 48.8490 -1.0860 94° East 521 600 39,000  Level FlightAware ADS-B
Thu 07:05:58 AM 48.8420 -0.9450 94° East 520 598 39,000  Level FlightAware ADS-B
Thu 07:06:43 AM 48.8330 -0.7730 94° East 519 597 39,000  Level FlightAware ADS-B
Thu 07:07:23 AM 48.8250 -0.6340 95° East 517 595 39,000  Level FlightAware ADS-B
Thu 07:08:03 AM 48.8170 -0.4900 95° East 516 594 39,000  Level FlightAware ADS-B
Thu 07:08:48 AM 48.8080 -0.3240 95° East 515 593 39,000  Level FlightAware ADS-B
Thu 07:09:28 AM 48.8000 -0.1790 95° East 516 594 39,000  Level FlightAware ADS-B
Thu 07:10:13 AM 48.7910 -0.0170 95° East 517 595 39,000  Level FlightAware ADS-B
Thu 07:10:53 AM 48.7820 0.1290 95° East 519 597 39,000  Level FlightAware ADS-B
Thu 07:11:33 AM 48.7730 0.2740 95° East 522 601 39,000  Level FlightAware ADS-B
Thu 07:12:18 AM 48.7630 0.4360 95° East 524 603 39,000  Level FlightAware ADS-B
Thu 07:12:58 AM 48.7540 0.5810 95° East 526 605 39,000  Level FlightAware ADS-B
Thu 07:13:43 AM 48.7430 0.7510 96° East 526 605 39,000  Level FlightAware ADS-B
Thu 07:14:18 AM 48.7350 0.8700 96° East 527 606 39,000  Level FlightAware ADS-B
Thu 07:14:58 AM 48.7240 1.0180 96° East 527 606 39,000  Level FlightAware ADS-B
Thu 07:15:48 AM 48.7120 1.2040 96° East 529 609 39,000  Level FlightAware ADS-B
Thu 07:16:28 AM 48.7010 1.3470 97° East 530 610 39,000  Level FlightAware ADS-B
Thu 07:17:08 AM 48.6900 1.4970 96° East 528 608 39,000  Level FlightAware ADS-B
Thu 07:17:43 AM 48.6810 1.6160 96° East 529 609 39,000  Level FlightAware ADS-B
Thu 07:18:28 AM 48.6680 1.7840 97° East 528 608 39,000  Level FlightAware ADS-B
Thu 07:19:13 AM 48.6560 1.9460 96° East 527 606 39,000  Level FlightAware ADS-B
Thu 07:20:02 AM 48.6404 2.1416 97° East 526 605 39,000  Level FlightAware ADS-B
Thu 07:20:53 AM 48.6270 2.3060 97° East 522 601 39,000  Level FlightAware ADS-B
Thu 07:21:31 AM 48.6150 2.4659 96° East 520 598 39,000  Level FlightAware ADS-B
Thu 07:22:12 AM 48.6037 2.6130 97° East 519 597 39,000  Level FlightAware ADS-B
Thu 07:23:18 AM 48.5944 2.8496 93° East 516 594 39,000  Level FlightAware ADS-B
Thu 07:23:48 AM 48.5880 2.9480 96° East 513 590 39,000  Level FlightAware ADS-B
Thu 07:24:24 AM 48.5711 3.0803 101° East 508 585 39,000  Level FlightAware ADS-B
Thu 07:24:56 AM 48.5513 3.1893 105° East 507 583 39,000  Level FlightAware ADS-B
Thu 07:26:18 AM 48.5040 3.4490 105° East 505 581 39,000  Level FlightAware ADS-B
Thu 07:26:58 AM 48.4790 3.5760 106° East 504 580 39,000  Level FlightAware ADS-B
Thu 07:27:38 AM 48.4520 3.7190 106° East 506 582 39,000  Level FlightAware ADS-B
Thu 07:28:23 AM 48.4220 3.8700 107° East 508 585 39,000  Level FlightAware ADS-B
Thu 07:29:03 AM 48.3940 4.0100 107° East 510 587 39,000  Level FlightAware ADS-B
Thu 07:29:43 AM 48.3680 4.1480 106° East 509 586 39,000  Level FlightAware ADS-B
Thu 07:30:28 AM 48.3410 4.2930 106° East 511 588 39,000  Level FlightAware ADS-B
Thu 07:31:08 AM 48.3140 4.4360 106° East 511 588 39,000  Level FlightAware ADS-B
Thu 07:31:43 AM 48.2800 4.5450 115° Southeast 502 578 39,000 -353 Level FlightAware ADS-B
Thu 07:32:33 AM 48.2250 4.7150 116° Southeast 502 578 38,500 -1,400 Descending FlightAware ADS-B
Thu 07:33:13 AM 48.1880 4.8250 117° Southeast 501 577 36,900 -2,560 Descending FlightAware ADS-B
Thu 07:33:48 AM 48.1500 4.9410 116° Southeast 534 615 35,300 -2,259 Descending FlightAware ADS-B
Thu 07:34:38 AM 48.1050 5.1140 111° Southeast 525 604 33,700 -2,047 Descending FlightAware ADS-B
Thu 07:35:13 AM 48.0850 5.2240 105° East 523 602 32,400 -1,835 Descending FlightAware ADS-B
Thu 07:36:03 AM 48.0530 5.4060 105° East 510 587 31,100 -933 Descending FlightAware ADS-B
Thu 07:36:43 AM 48.0320 5.5260 105° East 512 589 31,000 -71 Descending FlightAware ADS-B
Thu 07:37:28 AM 48.0030 5.6860 105° East 515 593 31,000 -988 Level FlightAware ADS-B
Thu 07:38:08 AM 47.9780 5.8270 105° East 512 589 29,600 -1,906 Descending FlightAware ADS-B
Thu 07:38:53 AM 47.9530 5.9620 105° East 495 570 28,300 -2,325 Descending FlightAware ADS-B
Thu 07:39:28 AM 47.9300 6.0930 105° East 490 564 26,500 -2,589 Descending FlightAware ADS-B
Thu 07:40:28 AM 47.8950 6.2820 105° East 473 544 24,200 -1,943 Descending FlightAware ADS-B
Thu 07:41:13 AM 47.8710 6.4140 105° East 463 533 23,100 -1,341 Descending FlightAware ADS-B
Thu 07:41:53 AM 47.8490 6.5390 105° East 459 528 22,300 -1,832 Descending FlightAware ADS-B
Thu 07:42:48 AM 47.8180 6.7070 105° East 446 513 20,200 -2,133 Descending FlightAware ADS-B
Thu 07:43:23 AM 47.7980 6.8070 107° East 436 502 19,100 -847 Descending FlightAware ADS-B
Thu 07:44:13 AM 47.7710 6.9490 106° East 431 496 19,000 -67 Descending FlightAware ADS-B
Thu 07:44:53 AM 47.7500 7.0560 106° East 434 499 19,000 -1,340 Level FlightAware ADS-B
Thu 07:47:00 AM 47.6227 7.4636 101° East  Level FlightAware Approximate
Thu 07:48:00 AM 47.5943 7.6677 104° East  Level FlightAware Approximate
Thu 07:49:00 AM 47.5606 7.8699 104° East  Level FlightAware Approximate
Thu 07:50:00 AM 47.5314 8.0735 101° East  Level FlightAware Approximate
Thu 07:51:00 AM 47.5011 8.2766 104° East  Level FlightAware Approximate
Thu 07:52:00 AM 47.4594 8.4675 102° East  Level FlightAware Approximate
Thu 07:52:48 AM 47.6850 8.1460 102° East 277 319 7,500  Level FlightAware ADS-B
Thu 07:53:18 AM 47.6690 8.2360 105° East 255 293 6,700 -1,650 Descending FlightAware ADS-B
Thu 07:53:28 AM 47.6660 8.2490 109° East 249 287 6,400 -1,800 Descending FlightAware ADS-B
Thu 07:53:48 AM 47.6510 8.2750 131° Southeast 224 258 5,800 -1,867 Descending FlightAware ADS-B
Thu 07:54:13 AM 47.6350 8.2980 136° Southeast 208 239 5,000 -2,100 Descending FlightAware ADS-B
Thu 07:54:28 AM 47.6220 8.3130 142° Southeast 191 220 4,400 -1,467 Descending FlightAware ADS-B
Thu 07:54:58 AM 47.6020 8.3390 139° Southeast 200 230 3,900 -1,067 Descending FlightAware ADS-B
Thu 07:55:13 AM 47.5940 8.3500 137° Southeast 181 208 3,600 -1,067 Descending FlightAware ADS-B
Thu 07:55:43 AM 47.5740 8.3750 140° Southeast 175 201 3,100 -900 Descending FlightAware ADS-B
Thu 07:56:13 AM 47.5560 8.4000 137° Southeast 152 175 2,700 -840 Descending FlightAware ADS-B
Thu 07:56:33 AM 47.5460 8.4110 143° Southeast 135 155 2,400 -764 Descending FlightAware ADS-B
Thu 07:57:08 AM 47.5280 8.4350 138° Southeast 138 159 2,000 -720 Descending FlightAware ADS-B
Thu 07:57:23 AM 47.5220 8.4420 142° Southeast 137 158 1,800 -480 Descending FlightAware ADS-B
Thu 07:57:58 AM 47.5040 8.4660 138° Southeast 149 171 1,600 -343 Descending FlightAware ADS-B

Login

Don't have an account? Register now (free) for customized features, flight alerts, and more!